createdAt,value
2017-06-14T03:30:59.249Z,18.30
2017-06-14T03:33:26.900Z,18.20
2017-06-14T03:35:54.557Z,18.10
2017-06-14T03:38:22.218Z,18.00
2017-06-14T03:40:49.910Z,18.00
2017-06-14T03:43:18.317Z,18.10
2017-06-14T03:45:45.991Z,18.10
2017-06-14T03:48:13.663Z,18.10
2017-06-14T03:50:41.324Z,18.10
2017-06-14T03:53:08.979Z,18.10
2017-06-14T03:55:36.700Z,18.20
2017-06-14T03:58:04.365Z,18.20
2017-06-14T04:00:32.778Z,18.20
2017-06-14T04:03:00.609Z,18.20
2017-06-14T04:05:28.257Z,18.20
2017-06-14T04:07:55.905Z,18.10
2017-06-14T04:10:23.631Z,18.10
2017-06-14T04:12:51.290Z,18.20
2017-06-14T04:15:18.925Z,18.20
2017-06-14T04:17:47.379Z,18.20
2017-06-14T04:20:15.018Z,18.20
2017-06-14T04:22:42.646Z,18.30
2017-06-14T04:25:10.326Z,18.20
2017-06-14T04:27:37.984Z,18.20
2017-06-14T04:30:05.647Z,18.20
2017-06-14T04:32:33.310Z,18.10
2017-06-14T04:35:01.046Z,18.20
2017-06-14T04:37:29.493Z,18.20
2017-06-14T04:39:57.152Z,18.20
2017-06-14T04:42:24.806Z,18.20
2017-06-14T04:44:52.449Z,18.20
2017-06-14T04:47:20.145Z,18.20
2017-06-14T04:49:47.786Z,18.30
2017-06-14T04:52:15.433Z,18.40
2017-06-14T04:54:43.090Z,18.40
2017-06-14T04:57:10.731Z,18.60
2017-06-14T04:59:38.441Z,18.70
2017-06-14T05:02:06.116Z,18.80
2017-06-14T05:04:33.781Z,18.90
2017-06-14T05:07:01.438Z,18.90
2017-06-14T05:09:29.080Z,19.00
2017-06-14T05:12:01.460Z,19.10
2017-06-14T05:14:29.436Z,19.10
2017-06-14T05:16:58.064Z,19.30
2017-06-14T05:19:25.740Z,19.20
2017-06-14T05:21:53.516Z,19.20
2017-06-14T05:24:21.159Z,19.20
2017-06-14T05:26:48.829Z,19.30
2017-06-14T05:29:16.477Z,19.30
2017-06-14T05:31:44.172Z,19.50
2017-06-14T05:34:11.813Z,19.50
2017-06-14T05:36:39.477Z,19.60
2017-06-14T05:39:07.154Z,19.70
2017-06-14T05:41:34.796Z,19.70
2017-06-14T05:44:02.469Z,19.80
2017-06-14T05:46:30.127Z,19.80
2017-06-14T05:48:57.818Z,19.90
2017-06-14T05:51:25.467Z,20.10
2017-06-14T05:53:53.151Z,20.30
2017-06-14T05:56:20.804Z,20.20
2017-06-14T05:58:48.468Z,20.20
2017-06-14T06:01:16.131Z,20.10
2017-06-14T06:03:43.772Z,20.10
2017-06-14T06:06:11.448Z,20.20
2017-06-14T06:08:39.099Z,20.40
2017-06-14T06:11:06.764Z,20.60
2017-06-14T06:13:34.416Z,20.50
2017-06-14T06:16:02.074Z,20.70
2017-06-14T06:18:29.737Z,20.80
2017-06-14T06:20:57.400Z,20.90
2017-06-14T06:23:25.070Z,21.00
2017-06-14T06:25:52.728Z,21.20
2017-06-14T06:28:20.447Z,21.40
2017-06-14T06:30:48.856Z,21.60
2017-06-14T06:33:16.560Z,21.60
2017-06-14T06:35:44.208Z,21.80
2017-06-14T06:38:11.859Z,21.90
2017-06-14T06:40:39.524Z,22.20
2017-06-14T06:43:07.169Z,22.50
2017-06-14T06:45:34.859Z,22.40
2017-06-14T06:48:02.490Z,22.50
2017-06-14T06:50:30.194Z,22.70
2017-06-14T06:52:57.843Z,22.90
2017-06-14T06:55:25.530Z,23.20
2017-06-14T06:57:53.169Z,23.00
2017-06-14T07:00:20.814Z,22.90
2017-06-14T07:02:48.492Z,23.10
2017-06-14T07:05:16.156Z,23.50
2017-06-14T07:07:43.823Z,23.70
2017-06-14T07:10:11.470Z,23.80
2017-06-14T07:12:39.141Z,23.90
2017-06-14T07:15:06.777Z,23.80
2017-06-14T07:17:34.462Z,23.90
2017-06-14T07:20:02.114Z,24.00
2017-06-14T07:22:29.989Z,24.00
2017-06-14T07:24:57.643Z,24.20
2017-06-14T07:27:25.290Z,24.40
2017-06-14T07:29:52.964Z,24.40
2017-06-14T07:32:20.596Z,24.50
2017-06-14T07:34:48.271Z,24.50
2017-06-14T07:37:15.927Z,24.60
2017-06-14T07:39:43.616Z,24.90
2017-06-14T07:42:11.272Z,24.90
2017-06-14T07:44:38.947Z,25.00
2017-06-14T07:47:08.209Z,25.00
2017-06-14T07:49:35.887Z,25.00
2017-06-14T07:52:03.525Z,25.10
2017-06-14T07:54:31.167Z,25.10
2017-06-14T07:56:59.602Z,25.60
2017-06-14T07:59:27.262Z,25.60
2017-06-14T08:01:54.907Z,26.00
2017-06-14T08:04:22.598Z,26.50
2017-06-14T08:06:50.250Z,26.50
2017-06-14T08:09:17.932Z,26.90
2017-06-14T08:11:45.631Z,27.20
2017-06-14T08:14:13.290Z,27.40
2017-06-14T08:16:41.715Z,28.20
2017-06-14T08:19:09.400Z,28.10
2017-06-14T08:21:37.042Z,28.40
2017-06-14T08:24:04.744Z,28.50
2017-06-14T08:26:32.428Z,28.50
2017-06-14T08:29:00.128Z,28.80
2017-06-14T08:31:27.801Z,29.20
2017-06-14T08:33:55.911Z,29.90
2017-06-14T08:36:23.850Z,29.90
2017-06-14T08:38:52.811Z,31.40
2017-06-14T08:41:20.490Z,31.30
2017-06-14T08:43:48.149Z,32.00
2017-06-14T08:46:15.824Z,32.60
2017-06-14T08:48:43.473Z,32.50
2017-06-14T08:53:32.287Z,32.60
2017-06-14T08:55:59.991Z,33.50
2017-06-14T08:58:27.683Z,34.60
2017-06-14T09:00:55.317Z,34.90
2017-06-14T09:03:22.986Z,35.20
2017-06-14T09:05:50.634Z,36.00
2017-06-14T09:08:18.309Z,36.40
2017-06-14T09:10:46.098Z,37.10
2017-06-14T09:13:13.725Z,38.60
2017-06-14T09:15:41.374Z,39.30
2017-06-14T09:18:09.036Z,39.80
2017-06-14T09:20:36.686Z,41.20
2017-06-14T09:23:04.372Z,41.80
2017-06-14T09:25:32.057Z,42.50
2017-06-14T09:27:59.715Z,43.50
2017-06-14T09:30:40.859Z,43.70
2017-06-14T09:33:09.654Z,43.30
2017-06-14T09:35:37.688Z,44.10
2017-06-14T09:38:06.122Z,41.70
2017-06-14T09:40:33.787Z,41.60
2017-06-14T09:43:01.453Z,41.90
2017-06-14T09:45:29.100Z,41.70
2017-06-14T09:47:56.753Z,41.80
2017-06-14T09:50:24.379Z,43.60
2017-06-14T09:52:52.829Z,43.70
2017-06-14T09:55:20.807Z,43.70
2017-06-14T09:57:48.595Z,42.10
2017-06-14T10:00:17.021Z,41.80
2017-06-14T10:02:44.657Z,41.80
2017-06-14T10:05:12.346Z,42.70
2017-06-14T10:07:39.985Z,43.30
2017-06-14T10:10:07.647Z,44.70
2017-06-14T10:12:35.294Z,45.50
2017-06-14T10:15:03.032Z,45.50
2017-06-14T10:17:31.458Z,43.80
2017-06-14T10:19:59.105Z,43.80
2017-06-14T10:22:26.753Z,42.90
2017-06-14T10:24:54.430Z,42.70
2017-06-14T10:27:22.082Z,42.30
2017-06-14T10:29:49.775Z,41.50
2017-06-14T10:32:17.464Z,39.20
2017-06-14T10:34:45.246Z,38.90
2017-06-14T10:37:12.948Z,37.00
2017-06-14T10:39:40.642Z,36.30
2017-06-14T10:42:08.286Z,36.90
2017-06-14T10:44:36.093Z,36.90
2017-06-14T10:47:03.805Z,36.60
2017-06-14T10:49:31.440Z,35.90
2017-06-14T10:51:59.966Z,34.00
2017-06-14T10:54:27.680Z,34.00
2017-06-14T10:56:56.106Z,34.70
2017-06-14T10:59:23.847Z,34.70
2017-06-14T11:01:51.533Z,34.60
2017-06-14T11:04:19.188Z,34.30
2017-06-14T11:06:46.892Z,34.30
2017-06-14T11:09:14.545Z,34.30
2017-06-14T11:11:42.251Z,33.90
2017-06-14T11:14:11.733Z,33.80
2017-06-14T11:16:42.597Z,33.20
2017-06-14T11:19:10.315Z,33.20
2017-06-14T11:21:37.999Z,33.10
2017-06-14T11:24:06.427Z,33.10
2017-06-14T11:26:34.096Z,33.00
2017-06-14T11:29:01.810Z,32.80
2017-06-14T11:31:30.248Z,31.80
2017-06-14T11:33:57.909Z,31.80
2017-06-14T11:36:27.174Z,31.60
2017-06-14T11:38:54.820Z,31.90
2017-06-14T11:41:23.239Z,32.20
2017-06-14T11:43:50.996Z,32.20
2017-06-14T11:46:18.683Z,31.70
2017-06-14T11:48:46.344Z,31.60
2017-06-14T11:51:14.050Z,31.80
2017-06-14T11:53:42.478Z,31.80
2017-06-14T11:56:10.141Z,31.80
2017-06-14T11:58:37.821Z,31.90
2017-06-14T12:01:05.443Z,32.00
2017-06-14T12:03:33.096Z,31.40
2017-06-14T12:06:00.821Z,30.30
2017-06-14T12:08:29.278Z,30.70
2017-06-14T12:10:56.919Z,30.70
2017-06-14T12:13:24.609Z,30.80
2017-06-14T12:15:52.261Z,31.00
2017-06-14T12:18:19.901Z,31.20
2017-06-14T12:20:47.583Z,31.10
2017-06-14T12:23:15.237Z,31.40
2017-06-14T12:25:42.993Z,30.60
2017-06-14T12:28:10.716Z,29.90
2017-06-14T12:30:39.156Z,30.20
2017-06-14T12:33:06.863Z,30.20
2017-06-14T12:35:35.325Z,30.80
2017-06-14T12:38:02.981Z,30.70
2017-06-14T12:40:30.651Z,30.80
2017-06-14T12:42:58.350Z,30.70
2017-06-14T12:45:26.005Z,30.50
2017-06-14T12:47:53.659Z,30.70
2017-06-14T12:50:21.352Z,30.00
2017-06-14T12:52:48.997Z,30.20
2017-06-14T12:55:16.677Z,30.30
2017-06-14T12:57:44.376Z,30.10
2017-06-14T13:00:12.017Z,30.10
2017-06-14T13:02:39.675Z,30.10
2017-06-14T13:05:07.348Z,29.60
2017-06-14T13:07:34.997Z,29.70
2017-06-14T13:10:02.866Z,29.80
2017-06-14T13:12:30.533Z,29.70
2017-06-14T13:14:58.202Z,29.70
2017-06-14T13:17:25.850Z,29.10
2017-06-14T13:19:54.565Z,27.90
2017-06-14T13:22:23.136Z,28.50
2017-06-14T13:24:50.784Z,28.50
2017-06-14T13:27:18.450Z,28.50
2017-06-14T13:29:46.105Z,28.20
2017-06-14T13:32:13.765Z,27.80
2017-06-14T13:34:41.428Z,28.20
2017-06-14T13:37:09.131Z,28.30
2017-06-14T13:39:37.544Z,27.60
2017-06-14T13:42:05.202Z,27.50
2017-06-14T13:44:32.857Z,27.70
2017-06-14T13:47:00.545Z,28.40
2017-06-14T13:49:28.210Z,28.80
2017-06-14T13:51:55.865Z,28.90
2017-06-14T13:54:23.601Z,28.80
2017-06-14T13:56:52.008Z,28.40
2017-06-14T13:59:19.690Z,28.40
2017-06-14T14:01:47.348Z,28.80
2017-06-14T14:04:14.996Z,29.00
2017-06-14T14:06:42.648Z,29.40
2017-06-14T14:09:10.295Z,29.40
2017-06-14T14:11:37.962Z,29.20
2017-06-14T14:14:05.624Z,28.70
2017-06-14T14:16:33.281Z,28.90
2017-06-14T14:19:00.912Z,29.10
2017-06-14T14:21:28.572Z,29.10
2017-06-14T14:23:56.290Z,28.90
2017-06-14T14:26:23.979Z,28.20
2017-06-14T14:28:51.782Z,27.80
2017-06-14T14:31:20.188Z,28.10
2017-06-14T14:33:47.850Z,28.10
2017-06-14T14:36:15.501Z,28.20
2017-06-14T14:38:43.171Z,28.20
2017-06-14T14:41:10.888Z,28.60
2017-06-14T14:43:38.692Z,28.80
2017-06-14T14:46:06.340Z,29.00
2017-06-14T14:48:34.824Z,28.90
2017-06-14T14:51:03.273Z,28.60
2017-06-14T14:53:31.319Z,28.60
2017-06-14T14:55:59.034Z,28.20
2017-06-14T14:58:27.459Z,28.10
2017-06-14T15:00:55.131Z,28.10
2017-06-14T15:03:22.781Z,28.30
2017-06-14T15:05:50.468Z,28.80
2017-06-14T15:08:18.112Z,29.20
2017-06-14T15:10:45.762Z,29.10
2017-06-14T15:13:13.441Z,29.00
2017-06-14T15:15:41.079Z,28.60
2017-06-14T15:18:08.797Z,28.40
2017-06-14T15:20:36.425Z,28.60
2017-06-14T15:23:04.098Z,28.80
2017-06-14T15:25:31.762Z,29.10
2017-06-14T15:27:59.442Z,29.10
2017-06-14T15:30:27.112Z,29.10
2017-06-14T15:32:54.760Z,29.00
2017-06-14T15:35:22.440Z,28.90
2017-06-14T15:37:50.833Z,28.30
2017-06-14T15:40:18.513Z,28.20
2017-06-14T15:42:46.171Z,28.10
2017-06-14T15:45:13.869Z,28.10
2017-06-14T15:47:41.510Z,27.80
2017-06-14T15:50:09.153Z,28.10
2017-06-14T15:52:36.852Z,28.20
2017-06-14T15:55:04.516Z,28.40
2017-06-14T15:57:32.169Z,28.70
2017-06-14T15:59:59.865Z,28.50
2017-06-14T16:02:27.509Z,28.70
2017-06-14T16:04:55.153Z,28.80
2017-06-14T16:07:22.848Z,28.90
2017-06-14T16:09:50.489Z,28.70
2017-06-14T16:12:18.140Z,28.90
2017-06-14T16:14:46.049Z,28.50
2017-06-14T16:17:13.717Z,28.60
2017-06-14T16:19:42.129Z,29.00
2017-06-14T16:22:10.141Z,29.00
2017-06-14T16:24:38.606Z,28.70
2017-06-14T16:27:06.373Z,28.70
2017-06-14T16:29:34.057Z,28.90
2017-06-14T16:32:01.701Z,29.10
2017-06-14T16:34:31.171Z,29.20
2017-06-14T16:36:58.861Z,29.20
2017-06-14T16:39:26.511Z,28.90
2017-06-14T16:41:54.216Z,28.80
2017-06-14T16:44:21.894Z,28.50
2017-06-14T16:46:50.351Z,27.80
2017-06-14T16:49:18.015Z,27.70
2017-06-14T16:51:45.810Z,27.70
2017-06-14T16:54:13.458Z,28.00
2017-06-14T16:56:41.120Z,27.60
2017-06-14T16:59:08.800Z,27.60
2017-06-14T17:01:36.628Z,27.30
2017-06-14T17:04:04.291Z,27.30
2017-06-14T17:06:31.974Z,27.70
2017-06-14T17:09:00.388Z,27.40
2017-06-14T17:11:28.035Z,27.40
2017-06-14T17:13:56.009Z,27.60
2017-06-14T17:16:23.658Z,27.60
2017-06-14T17:18:51.326Z,27.70
2017-06-14T17:21:19.099Z,27.90
2017-06-14T17:23:46.741Z,28.00
2017-06-14T17:26:14.408Z,28.10
2017-06-14T17:28:42.106Z,28.30
2017-06-14T17:31:09.772Z,28.40
2017-06-14T17:33:37.440Z,28.40
2017-06-14T17:36:05.123Z,28.40
2017-06-14T17:38:32.802Z,28.40
2017-06-14T17:41:00.513Z,28.40
2017-06-14T17:43:28.303Z,28.10
2017-06-14T17:45:55.972Z,27.70
2017-06-14T17:48:23.620Z,27.90
2017-06-14T17:50:51.302Z,28.20
2017-06-14T17:53:18.996Z,28.30
2017-06-14T17:55:46.674Z,28.30
2017-06-14T17:58:14.477Z,28.20
2017-06-14T18:00:42.192Z,28.20
2017-06-14T18:03:09.897Z,28.20
2017-06-14T18:05:37.611Z,28.20
2017-06-14T18:08:24.335Z,28.10
2017-06-14T18:10:52.051Z,28.10
2017-06-14T18:13:19.708Z,28.10
2017-06-14T18:15:48.056Z,28.10
2017-06-14T18:18:15.754Z,28.10
2017-06-14T18:20:43.422Z,28.00
2017-06-14T18:23:11.105Z,27.90
2017-06-14T18:25:39.904Z,27.90
2017-06-14T18:28:07.604Z,27.80
2017-06-14T18:30:35.250Z,27.70
2017-06-14T18:33:02.956Z,27.70
2017-06-14T18:38:24.146Z,27.40
2017-06-14T18:40:51.855Z,27.30
2017-06-14T18:46:13.597Z,27.20
2017-06-14T18:48:41.321Z,27.20
2017-06-14T18:51:09.062Z,27.20
2017-06-14T18:59:22.024Z,27.00
2017-06-14T19:01:50.441Z,26.90
2017-06-14T19:04:18.084Z,26.90
2017-06-14T19:06:45.760Z,26.80
2017-06-14T19:09:13.427Z,26.60
2017-06-14T19:11:41.125Z,26.50
2017-06-14T19:19:56.006Z,26.20
2017-06-14T19:22:23.687Z,26.10
2017-06-14T19:24:51.339Z,26.10
2017-06-14T19:27:19.004Z,26.10
2017-06-14T19:29:53.434Z,26.00
2017-06-14T19:32:21.135Z,26.00
2017-06-14T19:34:57.572Z,26.10
2017-06-14T19:37:25.296Z,26.00
2017-06-14T19:42:45.759Z,25.80
2017-06-14T19:45:13.407Z,25.70
2017-06-14T19:47:41.067Z,25.60
2017-06-14T19:55:54.833Z,25.30
2017-06-14T19:58:22.474Z,25.30
2017-06-14T20:00:50.167Z,25.30
2017-06-14T20:03:17.919Z,25.30
2017-06-14T20:14:31.123Z,24.80
2017-06-14T20:16:58.900Z,24.80
2017-06-14T20:19:26.753Z,24.80
2017-06-14T20:21:55.015Z,24.80
2017-06-14T20:24:23.591Z,24.70
2017-06-14T20:32:39.401Z,24.40
2017-06-14T20:35:07.105Z,24.40
2017-06-14T20:37:34.750Z,24.40
2017-06-14T20:40:02.812Z,24.30
2017-06-14T20:42:30.548Z,24.20
2017-06-14T20:44:58.975Z,24.20
2017-06-14T20:47:27.011Z,24.10
2017-06-14T20:49:54.649Z,24.20
2017-06-14T20:52:22.338Z,24.20
2017-06-14T20:54:50.447Z,24.20
2017-06-14T20:57:18.097Z,24.30
2017-06-14T20:59:45.807Z,24.20
2017-06-14T21:02:13.821Z,24.10
2017-06-14T21:04:41.501Z,24.10
2017-06-14T21:07:09.213Z,24.00
2017-06-14T21:09:37.326Z,23.90
2017-06-14T21:12:05.003Z,23.70
2017-06-14T21:14:32.667Z,23.60
2017-06-14T21:17:00.716Z,23.60
2017-06-14T21:19:28.382Z,23.60
2017-06-14T21:21:56.021Z,23.60
2017-06-14T21:24:24.086Z,23.70
2017-06-14T21:26:52.509Z,23.60
2017-06-14T21:29:20.303Z,23.60
